Time;durP1;ratioP1;P1;durP2;ratioP2;P2;SDS_P1;SDS_P2;PMS_P1;PMS_P2;Temp;Humidity;BMP_temperature;BMP_pressure;BME280_temperature;BME280_humidity;BME280_pressure;Samples;Min_cycle;Max_cycle;Signal;HPM_P1;HPM_P2
2023/08/16 00:01:04;;;;;;;;;;;;;;;23.85;45.04;100836.94;4935932;28;98073;-80
2023/08/16 00:03:34;;;;;;;;;;;;;;;23.84;45.29;100842.81;4934333;28;98153;-80
2023/08/16 00:06:09;;;;;;;;;;;;;;;23.83;45.47;100833.75;4922601;28;98280;-73
2023/08/16 00:08:35;;;;;;;;;;;;;;;23.82;45.02;100834.91;4929135;28;98333;-80
2023/08/16 00:11:01;;;;;;;;;;;;;;;23.82;45.41;100837.66;4937646;28;98195;-73
2023/08/16 00:13:28;;;;;;;;;;;;;;;23.81;45.53;100835.25;4937926;28;98979;-80
2023/08/16 00:15:54;;;;;;;;;;;;;;;23.80;45.14;100833.66;4942363;28;98283;-72
2023/08/16 00:18:23;;;;;;;;;;;;;;;23.77;45.26;100832.38;4938236;28;98908;-80
2023/08/16 00:20:50;;;;;;;;;;;;;;;23.75;45.32;100838.25;4920253;28;99579;-80
2023/08/16 00:23:16;;;;;;;;;;;;;;;23.76;45.42;100836.28;4937927;28;98115;-72
2023/08/16 00:25:43;;;;;;;;;;;;;;;23.74;45.40;100841.38;4938712;28;98082;-73
2023/08/16 00:28:10;;;;;;;;;;;;;;;23.72;45.30;100836.19;4916341;28;98507;-73
2023/08/16 00:30:37;;;;;;;;;;;;;;;23.70;45.46;100833.00;4920291;28;98612;-72
2023/08/16 00:33:03;;;;;;;;;;;;;;;23.69;45.40;100836.06;4936571;28;99330;-73
2023/08/16 00:35:30;;;;;;;;;;;;;;;23.68;45.46;100846.28;4905688;28;98294;-73
2023/08/16 00:37:58;;;;;;;;;;;;;;;23.66;45.47;100842.28;4909178;28;97872;-72
2023/08/16 00:40:24;;;;;;;;;;;;;;;23.64;45.27;100837.09;4925293;28;98360;-72
2023/08/16 00:42:52;;;;;;;;;;;;;;;23.62;45.47;100844.91;4925315;28;97993;-80
2023/08/16 00:45:19;;;;;;;;;;;;;;;23.61;45.50;100853.50;4920374;28;98030;-79
2023/08/16 00:47:46;;;;;;;;;;;;;;;23.59;45.31;100853.84;4936584;28;98476;-79
2023/08/16 00:50:12;;;;;;;;;;;;;;;23.57;45.50;100850.63;4935986;28;98503;-73
2023/08/16 00:52:39;;;;;;;;;;;;;;;23.57;45.31;100849.81;4929301;28;98115;-79
2023/08/16 00:55:06;;;;;;;;;;;;;;;23.54;45.58;100848.59;4929061;28;98087;-72
2023/08/16 00:57:32;;;;;;;;;;;;;;;23.52;45.41;100842.63;4959294;28;98120;-73
2023/08/16 00:59:59;;;;;;;;;;;;;;;23.51;45.46;100847.31;4920667;28;98013;-72
2023/08/16 01:02:25;;;;;;;;;;;;;;;23.50;45.53;100844.91;4939962;28;98967;-72
2023/08/16 01:04:52;;;;;;;;;;;;;;;23.48;45.25;100852.72;4937754;28;101421;-80
2023/08/16 01:07:18;;;;;;;;;;;;;;;23.45;45.49;100848.69;4923087;28;99389;-72
2023/08/16 01:09:46;;;;;;;;;;;;;;;23.46;45.36;100849.47;4936615;28;98013;-78
2023/08/16 01:12:20;;;;;;;;;;;;;;;23.45;45.43;100859.69;4908226;28;99674;-72
2023/08/16 01:14:56;;;;;;;;;;;;;;;23.45;45.31;100867.13;4931659;28;98188;-72
2023/08/16 01:17:23;;;;;;;;;;;;;;;23.43;45.39;100867.50;4935012;28;98266;-79
2023/08/16 01:19:51;;;;;;;;;;;;;;;23.41;45.67;100871.72;4935322;28;100980;-78
2023/08/16 01:22:36;;;;;;;;;;;;;;;23.38;45.41;100875.97;4912219;28;98538;-79
2023/08/16 01:25:11;;;;;;;;;;;;;;;23.37;45.48;100873.56;4936739;28;98259;-79
2023/08/16 01:27:38;;;;;;;;;;;;;;;23.33;45.59;100862.44;4940484;28;99102;-72
2023/08/16 01:30:06;;;;;;;;;;;;;;;23.33;45.69;100867.16;4915574;28;99305;-73
2023/08/16 01:32:37;;;;;;;;;;;;;;;23.32;45.77;100866.34;4904262;28;98657;-78
2023/08/16 01:35:03;;;;;;;;;;;;;;;23.31;45.60;100870.25;4941407;28;98911;-73
2023/08/16 01:37:33;;;;;;;;;;;;;;;23.29;45.65;100869.78;4922549;28;98056;-80
2023/08/16 01:40:03;;;;;;;;;;;;;;;23.29;45.69;100872.53;4907257;28;98981;-73
2023/08/16 01:42:32;;;;;;;;;;;;;;;23.28;45.72;100873.69;4937954;28;98258;-76
2023/08/16 01:44:59;;;;;;;;;;;;;;;23.27;45.90;100874.84;4921148;28;99372;-79
2023/08/16 01:47:27;;;;;;;;;;;;;;;23.24;45.81;100873.56;4923737;28;98422;-79
2023/08/16 01:49:54;;;;;;;;;;;;;;;23.22;45.84;100886.84;4927890;28;98320;-73
2023/08/16 01:52:22;;;;;;;;;;;;;;;23.21;45.77;100887.19;4920006;28;99474;-79
2023/08/16 01:54:50;;;;;;;;;;;;;;;23.18;45.64;100883.16;4923515;28;98066;-72
2023/08/16 01:57:16;;;;;;;;;;;;;;;23.16;45.65;100882.72;4933893;28;98136;-73
2023/08/16 01:59:43;;;;;;;;;;;;;;;23.14;45.74;100876.75;4906597;28;98475;-79
2023/08/16 02:02:11;;;;;;;;;;;;;;;23.12;45.61;100884.56;4928972;28;98154;-78
2023/08/16 02:04:37;;;;;;;;;;;;;;;23.11;45.75;100882.97;4903617;28;98382;-79
2023/08/16 02:07:04;;;;;;;;;;;;;;;23.10;45.62;100873.09;4904266;28;98833;-73
2023/08/16 02:09:32;;;;;;;;;;;;;;;23.07;45.78;100868.28;4941202;28;98031;-79
2023/08/16 02:11:58;;;;;;;;;;;;;;;23.06;45.88;100879.63;4924411;28;98632;-79
2023/08/16 02:14:24;;;;;;;;;;;;;;;23.06;45.61;100882.38;4927110;28;98171;-81
2023/08/16 02:16:51;;;;;;;;;;;;;;;23.04;45.63;100879.97;4939130;28;99042;-79
2023/08/16 02:19:19;;;;;;;;;;;;;;;23.02;45.56;100885.00;4936974;28;98324;-79
2023/08/16 02:21:46;;;;;;;;;;;;;;;22.99;45.80;100880.16;4924642;28;100657;-73
2023/08/16 02:24:13;;;;;;;;;;;;;;;22.96;45.79;100878.91;4939252;28;99595;-79
2023/08/16 02:26:41;;;;;;;;;;;;;;;22.94;45.87;100878.44;4929641;28;98282;-77
2023/08/16 02:29:07;;;;;;;;;;;;;;;22.91;45.68;100873.66;4939708;28;100216;-79
2023/08/16 02:31:34;;;;;;;;;;;;;;;22.91;45.70;100872.81;4916683;28;98266;-73
2023/08/16 02:34:01;;;;;;;;;;;;;;;22.89;45.63;100869.59;4930631;28;98425;-72
2023/08/16 02:36:30;;;;;;;;;;;;;;;22.87;45.75;100869.94;4931990;28;98608;-79
2023/08/16 02:38:59;;;;;;;;;;;;;;;22.86;45.74;100875.78;4918731;28;98227;-79
2023/08/16 02:41:27;;;;;;;;;;;;;;;22.84;45.99;100878.88;4913971;28;98354;-79
2023/08/16 02:43:54;;;;;;;;;;;;;;;22.83;45.94;100879.19;4923301;28;98074;-79
2023/08/16 02:46:20;;;;;;;;;;;;;;;22.79;45.91;100874.41;4939969;28;98179;-73
2023/08/16 02:48:46;;;;;;;;;;;;;;;22.77;45.89;100875.88;4928252;28;99243;-73
2023/08/16 02:51:14;;;;;;;;;;;;;;;22.74;45.76;100877.34;4909673;28;98526;-73
2023/08/16 02:53:41;;;;;;;;;;;;;;;22.71;45.88;100875.25;4919552;28;98130;-79
2023/08/16 02:56:08;;;;;;;;;;;;;;;22.67;45.91;100879.84;4894356;28;99384;-80
2023/08/16 02:58:39;;;;;;;;;;;;;;;22.70;46.02;100881.91;4912288;28;98142;-79
2023/08/16 03:01:05;;;;;;;;;;;;;;;22.75;45.85;100887.22;4914196;28;98125;-78
2023/08/16 03:03:32;;;;;;;;;;;;;;;22.82;45.93;100880.34;4904386;28;98105;-72
2023/08/16 03:05:58;;;;;;;;;;;;;;;22.87;45.72;100880.94;4919970;28;98315;-78
2023/08/16 03:08:24;;;;;;;;;;;;;;;22.90;45.71;100887.69;4930906;28;99445;-78
2023/08/16 03:10:50;;;;;;;;;;;;;;;22.93;45.79;100893.34;4943227;28;100577;-72
2023/08/16 03:13:16;;;;;;;;;;;;;;;22.93;45.85;100898.84;4929425;28;98159;-79
2023/08/16 03:15:45;;;;;;;;;;;;;;;22.95;45.95;100910.31;4903361;28;117007;-72
2023/08/16 03:18:12;;;;;;;;;;;;;;;22.95;45.88;100902.06;4923023;28;109492;-79
2023/08/16 03:20:38;;;;;;;;;;;;;;;22.97;45.61;100905.25;4927677;28;98270;-72
2023/08/16 03:23:05;;;;;;;;;;;;;;;22.96;45.74;100902.84;4922436;28;98437;-72
2023/08/16 03:25:31;;;;;;;;;;;;;;;22.95;45.84;100907.56;4897065;28;98347;-72
2023/08/16 03:27:57;;;;;;;;;;;;;;;22.95;45.98;100910.31;4920916;28;105602;-72
2023/08/16 03:30:23;;;;;;;;;;;;;;;22.95;45.85;100913.06;4914628;28;98417;-78
2023/08/16 03:32:49;;;;;;;;;;;;;;;22.95;45.84;100913.06;4917590;28;98219;-72
2023/08/16 03:35:15;;;;;;;;;;;;;;;22.95;46.01;100918.56;4938019;28;98839;-72
2023/08/16 03:37:42;;;;;;;;;;;;;;;22.95;45.98;100912.22;4936595;28;97927;-81
2023/08/16 03:40:09;;;;;;;;;;;;;;;22.94;45.99;100910.63;4928442;28;98097;-72
2023/08/16 03:42:36;;;;;;;;;;;;;;;22.93;46.15;100917.28;4918363;28;99464;-72
2023/08/16 03:45:02;;;;;;;;;;;;;;;22.92;46.14;100916.47;4933977;28;98108;-79
2023/08/16 03:47:29;;;;;;;;;;;;;;;22.92;45.87;100929.41;4920424;28;98617;-72
2023/08/16 03:49:56;;;;;;;;;;;;;;;22.91;45.95;100925.03;4937147;28;98185;-72
2023/08/16 03:52:22;;;;;;;;;;;;;;;22.90;45.91;100924.22;4939428;28;102995;-72
2023/08/16 03:54:50;;;;;;;;;;;;;;;22.91;46.09;100925.03;4941298;28;98439;-79
2023/08/16 03:57:16;;;;;;;;;;;;;;;22.91;46.07;100927.78;4923267;28;98309;-79
2023/08/16 03:59:43;;;;;;;;;;;;;;;22.91;45.96;100916.78;4937214;28;99170;-72
2023/08/16 04:02:10;;;;;;;;;;;;;;;22.91;45.93;100919.53;4922057;28;98111;-72
2023/08/16 04:04:40;;;;;;;;;;;;;;;22.90;46.05;100924.22;4903117;28;98213;-80
2023/08/16 04:07:06;;;;;;;;;;;;;;;22.91;46.19;100933.28;4933473;28;97848;-72
2023/08/16 04:09:33;;;;;;;;;;;;;;;22.90;45.88;100931.66;4917197;28;98043;-72
2023/08/16 04:12:00;;;;;;;;;;;;;;;22.89;45.82;100941.84;4935739;28;98484;-79
2023/08/16 04:14:26;;;;;;;;;;;;;;;22.90;46.21;100940.69;4891150;28;98844;-79
2023/08/16 04:16:52;;;;;;;;;;;;;;;22.91;46.03;100936.88;4920152;28;99172;-79
2023/08/16 04:19:19;;;;;;;;;;;;;;;22.91;46.02;100945.09;4939853;28;98276;-72
2023/08/16 04:21:46;;;;;;;;;;;;;;;22.91;45.71;100944.28;4919640;28;98253;-79
2023/08/16 04:24:12;;;;;;;;;;;;;;;22.91;46.00;100938.78;4919447;28;98189;-72
2023/08/16 04:26:39;;;;;;;;;;;;;;;22.90;45.87;100943.44;4922824;28;98074;-72
2023/08/16 04:29:07;;;;;;;;;;;;;;;22.89;45.99;100946.53;4922793;28;98024;-79
2023/08/16 04:31:33;;;;;;;;;;;;;;;22.88;46.05;100937.50;4915759;28;98302;-73
2023/08/16 04:34:00;;;;;;;;;;;;;;;22.88;45.98;100945.75;4938362;28;98330;-72
2023/08/16 04:36:26;;;;;;;;;;;;;;;22.86;45.84;100950.75;4933958;28;98171;-72
2023/08/16 04:38:53;;;;;;;;;;;;;;;22.87;45.96;100951.56;4917322;28;98096;-79
2023/08/16 04:41:20;;;;;;;;;;;;;;;22.86;45.77;100955.47;4920730;28;98702;-80
2023/08/16 04:43:47;;;;;;;;;;;;;;;22.88;46.02;100954.00;4940712;28;99598;-72
2023/08/16 04:46:13;;;;;;;;;;;;;;;22.91;45.89;100960.75;4928993;28;97879;-73
2023/08/16 04:48:40;;;;;;;;;;;;;;;22.95;45.84;100964.44;4927583;28;99663;-79
2023/08/16 04:51:06;;;;;;;;;;;;;;;22.99;45.57;100960.69;4874116;28;98302;-73
2023/08/16 04:53:33;;;;;;;;;;;;;;;23.05;45.63;100961.28;4934759;28;99712;-72
2023/08/16 04:55:59;;;;;;;;;;;;;;;23.10;45.64;100969.28;4915589;28;98219;-72
2023/08/16 04:58:25;;;;;;;;;;;;;;;23.17;45.72;100961.31;4914271;28;98258;-80
2023/08/16 05:00:51;;;;;;;;;;;;;;;23.23;45.66;100970.94;4916209;28;98027;-73
2023/08/16 05:03:18;;;;;;;;;;;;;;;23.27;45.55;100966.38;4914505;28;98542;-81
2023/08/16 05:05:44;;;;;;;;;;;;;;;23.34;45.47;100973.25;4925322;28;99238;-81
2023/08/16 05:08:10;;;;;;;;;;;;;;;23.37;45.58;100964.31;4918547;28;98571;-73
2023/08/16 05:10:37;;;;;;;;;;;;;;;23.38;45.41;100969.47;4921470;28;98028;-73
2023/08/16 05:13:04;;;;;;;;;;;;;;;23.40;45.30;100971.88;4936321;28;97935;-81
2023/08/16 05:15:32;;;;;;;;;;;;;;;23.40;45.60;100974.66;4892794;28;100749;-81
2023/08/16 05:17:58;;;;;;;;;;;;;;;23.42;45.58;100975.09;4932738;28;98207;-81
2023/08/16 05:20:24;;;;;;;;;;;;;;;23.42;45.72;100983.34;4912461;28;102914;-72
2023/08/16 05:22:51;;;;;;;;;;;;;;;23.42;45.61;100975.91;4894121;28;98343;-72
2023/08/16 05:25:17;;;;;;;;;;;;;;;23.42;45.53;100981.41;4055569;28;10000671;-72
2023/08/16 05:27:48;;;;;;;;;;;;;;;23.45;45.76;100979.91;4674082;28;10000445;-79
2023/08/16 05:30:15;;;;;;;;;;;;;;;23.49;45.66;100987.13;4382427;28;10001136;-72
2023/08/16 05:32:43;;;;;;;;;;;;;;;23.53;45.59;100990.81;4914055;28;98444;-79
2023/08/16 05:35:10;;;;;;;;;;;;;;;23.63;45.20;101002.53;4938729;28;99538;-72
2023/08/16 05:37:37;;;;;;;;;;;;;;;23.79;45.19;101003.47;4949013;28;99912;-72
2023/08/16 05:40:06;;;;;;;;;;;;;;;23.95;44.81;100998.88;4051772;28;10000919;-80
2023/08/16 05:42:36;;;;;;;;;;;;;;;24.15;44.96;101002.66;4683613;28;10000379;-79
2023/08/16 05:45:03;;;;;;;;;;;;;;;24.10;44.88;100999.34;4416196;28;10000331;-79
2023/08/16 05:47:29;;;;;;;;;;;;;;;24.09;45.04;101003.22;4954005;28;99870;-72
2023/08/16 05:49:55;;;;;;;;;;;;;;;24.10;45.16;101007.59;4931705;28;98272;-73
2023/08/16 05:52:22;;;;;;;;;;;;;;;24.13;45.19;101009.63;4952416;28;99130;-72
2023/08/16 05:54:49;;;;;;;;;;;;;;;24.15;45.26;101015.63;4936251;28;99588;-72
2023/08/16 05:57:15;;;;;;;;;;;;;;;24.17;45.25;101014.13;4919825;28;103729;-72
2023/08/16 05:59:41;;;;;;;;;;;;;;;24.22;45.06;101021.34;4909234;28;98788;-72
2023/08/16 06:02:08;;;;;;;;;;;;;;;24.27;44.97;101014.78;4915747;28;98366;-78
2023/08/16 06:04:34;;;;;;;;;;;;;;;24.33;45.24;101021.69;4939941;28;98423;-72
2023/08/16 06:07:02;;;;;;;;;;;;;;;24.45;45.16;101016.19;4937906;28;99105;-79
2023/08/16 06:09:29;;;;;;;;;;;;;;;24.60;44.63;101017.38;4932405;28;97940;-72
2023/08/16 06:11:56;;;;;;;;;;;;;;;24.87;44.75;101010.28;4912346;28;97960;-80
2023/08/16 06:14:22;;;;;;;;;;;;;;;24.91;44.79;101017.50;4921762;28;97999;-79
2023/08/16 06:16:49;;;;;;;;;;;;;;;25.04;44.62;101012.75;4915370;28;98211;-72
2023/08/16 06:19:15;;;;;;;;;;;;;;;25.20;44.46;101018.31;4917315;28;98238;-72
2023/08/16 06:21:42;;;;;;;;;;;;;;;25.25;44.56;101008.97;4903537;28;99987;-73
2023/08/16 06:24:10;;;;;;;;;;;;;;;25.33;44.34;101017.09;4899205;28;98386;-79
2023/08/16 06:26:36;;;;;;;;;;;;;;;25.52;44.18;101010.88;4915109;28;98116;-79
2023/08/16 06:29:03;;;;;;;;;;;;;;;25.91;43.96;101014.63;4917207;28;98303;-72
2023/08/16 06:31:30;;;;;;;;;;;;;;;26.37;43.40;101019.59;4913274;28;98860;-79
2023/08/16 06:33:56;;;;;;;;;;;;;;;26.77;43.24;101018.50;4919403;28;98094;-72
2023/08/16 06:36:24;;;;;;;;;;;;;;;27.35;42.56;101015.66;4940429;28;98252;-73
2023/08/16 06:38:50;;;;;;;;;;;;;;;27.35;43.06;101019.28;4917195;28;99313;-80
2023/08/16 06:41:17;;;;;;;;;;;;;;;27.20;43.12;101022.94;4918574;28;98255;-80
2023/08/16 06:43:47;;;;;;;;;;;;;;;27.09;43.48;101024.66;4928729;28;98982;-80
2023/08/16 06:46:14;;;;;;;;;;;;;;;27.00;43.81;101026.84;4903561;28;99734;-71
2023/08/16 06:48:41;;;;;;;;;;;;;;;26.89;43.86;101021.13;4918104;28;98920;-72
2023/08/16 06:51:08;;;;;;;;;;;;;;;26.75;43.99;101010.56;4900644;28;98334;-81
2023/08/16 06:53:38;;;;;;;;;;;;;;;26.63;44.25;101016.25;4922163;28;99092;-80
2023/08/16 06:56:04;;;;;;;;;;;;;;;26.48;44.52;101023.44;4923589;28;99013;-73
2023/08/16 06:58:31;;;;;;;;;;;;;;;26.33;44.70;101025.06;4909960;28;98665;-72
2023/08/16 07:00:57;;;;;;;;;;;;;;;26.20;44.80;101032.66;4912128;28;99022;-79
2023/08/16 07:03:24;;;;;;;;;;;;;;;26.11;44.77;101029.28;4930079;28;98796;-79
2023/08/16 07:05:51;;;;;;;;;;;;;;;26.05;44.94;101029.91;4914357;28;98155;-76
2023/08/16 07:08:17;;;;;;;;;;;;;;;26.00;44.96;101031.00;4915602;28;98279;-74
2023/08/16 07:10:44;;;;;;;;;;;;;;;25.96;44.82;101030.13;4904388;28;98478;-73
2023/08/16 07:13:10;;;;;;;;;;;;;;;25.88;44.83;101033.88;4901408;28;100111;-80
2023/08/16 07:15:37;;;;;;;;;;;;;;;25.84;44.72;101047.59;4931152;28;98147;-80
2023/08/16 07:18:03;;;;;;;;;;;;;;;25.88;44.82;101039.38;4934494;28;98876;-80
2023/08/16 07:20:31;;;;;;;;;;;;;;;25.98;44.75;101035.28;4930160;28;98385;-72
2023/08/16 07:22:58;;;;;;;;;;;;;;;26.11;44.59;101045.06;4909619;28;98719;-72
2023/08/16 07:25:26;;;;;;;;;;;;;;;26.28;44.44;101043.88;4930668;28;99385;-80
2023/08/16 07:27:52;;;;;;;;;;;;;;;26.69;43.76;101047.97;4916421;28;98464;-73
2023/08/16 07:30:18;;;;;;;;;;;;;;;27.73;42.69;101053.50;4920207;28;98082;-72
2023/08/16 07:32:44;;;;;;;;;;;;;;;29.53;40.93;101047.22;4917776;28;98787;-73
2023/08/16 07:35:11;;;;;;;;;;;;;;;29.67;41.00;101049.38;4931398;28;98741;-80
2023/08/16 07:37:37;;;;;;;;;;;;;;;29.43;42.10;101052.66;4914717;28;98072;-72
2023/08/16 07:40:05;;;;;;;;;;;;;;;29.41;42.15;101055.84;4917101;28;98370;-72
2023/08/16 07:42:31;;;;;;;;;;;;;;;29.70;41.65;101056.91;4903730;28;98176;-80
2023/08/16 07:45:02;;;;;;;;;;;;;;;30.12;41.59;101061.22;4910849;28;98622;-73
2023/08/16 07:47:29;;;;;;;;;;;;;;;30.22;41.60;101066.09;4917873;28;98849;-80
2023/08/16 07:49:56;;;;;;;;;;;;;;;30.27;41.64;101062.94;4917158;28;98033;-74
2023/08/16 07:52:22;;;;;;;;;;;;;;;31.02;41.14;101068.09;4915600;28;98131;-73
2023/08/16 07:54:48;;;;;;;;;;;;;;;30.99;41.32;101066.06;4902433;28;98427;-72
2023/08/16 07:57:16;;;;;;;;;;;;;;;30.83;41.87;101065.63;4916061;28;98154;-73
2023/08/16 07:59:43;;;;;;;;;;;;;;;30.74;41.78;101066.00;4913815;28;98590;-81
2023/08/16 08:02:12;;;;;;;;;;;;;;;31.35;41.37;101075.34;4929529;28;98322;-80
2023/08/16 08:04:39;;;;;;;;;;;;;;;31.15;41.79;101066.53;4902617;28;98867;-73
2023/08/16 08:07:05;;;;;;;;;;;;;;;31.16;41.68;101070.09;4917563;28;98234;-81
2023/08/16 08:09:32;;;;;;;;;;;;;;;31.12;42.10;101063.72;4916315;28;97910;-72
2023/08/16 08:12:00;;;;;;;;;;;;;;;31.11;42.12;101073.28;4917375;28;98092;-72
2023/08/16 08:14:26;;;;;;;;;;;;;;;31.14;41.88;101070.50;4937541;28;98752;-80
2023/08/16 08:16:54;;;;;;;;;;;;;;;31.21;42.12;101078.09;4914072;28;98101;-72
2023/08/16 08:19:21;;;;;;;;;;;;;;;31.16;42.19;101076.47;4912135;28;98059;-72
2023/08/16 08:21:47;;;;;;;;;;;;;;;30.98;42.42;101072.84;4917317;28;100164;-72
2023/08/16 08:24:15;;;;;;;;;;;;;;;30.85;42.52;101074.38;4931406;28;99005;-73
2023/08/16 08:26:44;;;;;;;;;;;;;;;31.02;42.26;101070.88;4919362;28;98461;-80
2023/08/16 08:29:11;;;;;;;;;;;;;;;31.12;42.13;101072.88;4911700;28;99896;-80
2023/08/16 08:31:37;;;;;;;;;;;;;;;31.76;41.62;101069.44;4901336;28;98763;-72
2023/08/16 08:34:05;;;;;;;;;;;;;;;31.28;42.15;101078.06;4899863;28;99512;-80
2023/08/16 08:36:32;;;;;;;;;;;;;;;31.26;42.25;101080.47;4936434;28;98737;-72
2023/08/16 08:38:58;;;;;;;;;;;;;;;31.40;41.97;101079.72;4912597;28;99552;-72
2023/08/16 08:41:24;;;;;;;;;;;;;;;32.19;41.17;101086.94;4918158;28;99424;-72
2023/08/16 08:43:51;;;;;;;;;;;;;;;31.89;41.75;101081.78;4922432;28;98269;-72
2023/08/16 08:46:18;;;;;;;;;;;;;;;32.49;41.20;101085.69;4915007;28;98217;-72
2023/08/16 08:48:46;;;;;;;;;;;;;;;33.81;39.70;101095.44;4920495;28;98493;-79
2023/08/16 08:51:14;;;;;;;;;;;;;;;35.08;38.67;101091.72;4904298;28;98400;-72
2023/08/16 08:53:40;;;;;;;;;;;;;;;34.46;39.65;101096.41;4901864;28;98118;-73
2023/08/16 08:56:10;;;;;;;;;;;;;;;34.05;40.47;101086.03;4923425;28;98670;-80
2023/08/16 08:58:38;;;;;;;;;;;;;;;33.94;40.63;101077.72;4905188;28;98296;-72
2023/08/16 09:01:07;;;;;;;;;;;;;;;33.83;41.14;101085.41;4934062;28;97953;-81
2023/08/16 09:03:34;;;;;;;;;;;;;;;33.62;40.87;101080.00;4920329;28;98270;-80
2023/08/16 09:06:01;;;;;;;;;;;;;;;33.36;41.14;101079.34;4935871;28;98270;-73
2023/08/16 09:08:30;;;;;;;;;;;;;;;33.24;41.51;101079.81;4918716;28;102867;-80
2023/08/16 09:10:56;;;;;;;;;;;;;;;33.56;40.76;101084.41;4918744;28;99366;-72
2023/08/16 09:13:23;;;;;;;;;;;;;;;36.18;38.03;101075.19;4899455;28;103961;-80
2023/08/16 09:15:49;;;;;;;;;;;;;;;36.02;38.72;101077.88;4932721;28;98323;-73
2023/08/16 09:18:21;;;;;;;;;;;;;;;36.05;39.05;101080.63;4931045;28;98271;-72
2023/08/16 09:20:49;;;;;;;;;;;;;;;36.90;38.26;101068.13;4916965;28;98395;-80
2023/08/16 09:23:17;;;;;;;;;;;;;;;38.04;37.51;101076.69;4903906;28;99339;-81
2023/08/16 09:25:44;;;;;;;;;;;;;;;36.45;39.26;101071.47;4919138;28;98483;-72
2023/08/16 09:28:17;;;;;;;;;;;;;;;36.04;40.09;101078.22;4921378;28;98277;-79
2023/08/16 09:30:43;;;;;;;;;;;;;;;35.43;40.63;101070.78;4898009;28;98828;-72
2023/08/16 09:33:13;;;;;;;;;;;;;;;36.99;38.62;101074.78;4930536;28;98089;-80
2023/08/16 09:35:49;;;;;;;;;;;;;;;38.89;36.94;101076.34;4932138;28;98508;-72
2023/08/16 09:38:15;;;;;;;;;;;;;;;39.19;36.97;101074.25;4918172;28;98482;-69
2023/08/16 09:40:51;;;;;;;;;;;;;;;38.42;37.96;101078.91;4931079;28;98214;-70
2023/08/16 09:43:18;;;;;;;;;;;;;;;39.35;37.43;101081.81;4894994;28;99966;-80
2023/08/16 09:45:48;;;;;;;;;;;;;;;41.33;35.33;101086.38;4916213;28;98190;-80
2023/08/16 09:48:15;;;;;;;;;;;;;;;41.47;35.93;101082.22;4903644;28;100526;-80
2023/08/16 09:50:41;;;;;;;;;;;;;;;40.42;37.22;101078.16;4902348;28;98183;-80
2023/08/16 09:53:11;;;;;;;;;;;;;;;41.83;36.16;101083.56;4913330;28;98768;-80
2023/08/16 09:55:37;;;;;;;;;;;;;;;39.71;38.50;101073.78;4914636;28;99180;-72
2023/08/16 09:58:04;;;;;;;;;;;;;;;38.38;39.50;101069.78;4915874;28;98164;-72
2023/08/16 10:00:34;;;;;;;;;;;;;;;37.50;40.22;101066.03;4933701;28;99319;-80
2023/08/16 10:03:01;;;;;;;;;;;;;;;36.99;40.66;101062.78;4913091;28;98009;-72
2023/08/16 10:05:28;;;;;;;;;;;;;;;36.49;41.08;101055.38;4908690;28;98884;-81
2023/08/16 10:07:59;;;;;;;;;;;;;;;36.06;41.16;101056.16;4902866;28;98217;-71
2023/08/16 10:10:26;;;;;;;;;;;;;;;35.65;41.31;101060.06;4918459;28;98590;-72
2023/08/16 10:12:52;;;;;;;;;;;;;;;35.19;41.60;101052.38;4932293;28;98152;-72
2023/08/16 10:15:18;;;;;;;;;;;;;;;34.30;42.93;101059.81;4917719;28;98424;-72
2023/08/16 10:17:45;;;;;;;;;;;;;;;33.67;42.71;101049.59;4896110;28;98305;-80
2023/08/16 10:20:29;;;;;;;;;;;;;;;33.24;43.42;101051.88;4940109;28;99144;-80
2023/08/16 10:23:03;;;;;;;;;;;;;;;32.94;43.33;101050.50;4919261;28;98619;-72
2023/08/16 10:25:58;;;;;;;;;;;;;;;32.89;43.01;101048.06;4907304;28;102991;-72
2023/08/16 10:28:25;;;;;;;;;;;;;;;33.05;42.44;101050.41;4901035;28;127541;-73
2023/08/16 10:30:55;;;;;;;;;;;;;;;33.31;42.06;101051.84;4905457;28;99569;-81
2023/08/16 10:33:33;;;;;;;;;;;;;;;35.38;39.68;101052.47;4927647;28;98692;-79
2023/08/16 10:36:00;;;;;;;;;;;;;;;35.82;39.44;101060.97;4902242;28;99664;-72
2023/08/16 10:38:44;;;;;;;;;;;;;;;34.90;41.01;101053.53;4919002;28;98356;-80
2023/08/16 10:41:14;;;;;;;;;;;;;;;34.35;41.74;101050.97;4925965;28;98265;-72
2023/08/16 10:43:50;;;;;;;;;;;;;;;33.94;41.92;101046.19;4948609;28;98157;-80
2023/08/16 10:46:31;;;;;;;;;;;;;;;33.66;42.31;101048.03;4914305;28;98763;-79
2023/08/16 10:49:03;;;;;;;;;;;;;;;33.71;42.08;101055.16;4918546;28;98671;-80
2023/08/16 10:51:31;;;;;;;;;;;;;;;33.51;41.83;101049.34;4903649;28;107766;-80
2023/08/16 10:53:57;;;;;;;;;;;;;;;33.93;41.30;101047.41;4947811;28;98256;-72
2023/08/16 10:56:24;;;;;;;;;;;;;;;36.27;38.52;101060.56;4915173;28;98265;-72
2023/08/16 10:58:52;;;;;;;;;;;;;;;34.96;40.60;101053.84;4899420;28;98593;-80
2023/08/16 11:01:20;;;;;;;;;;;;;;;34.50;41.07;101052.44;4930393;28;98146;-80
2023/08/16 11:03:49;;;;;;;;;;;;;;;34.19;41.18;101045.94;4915504;28;98278;-72
2023/08/16 11:06:17;;;;;;;;;;;;;;;33.88;41.95;101042.25;4906819;28;98083;-80
2023/08/16 11:08:47;;;;;;;;;;;;;;;33.64;41.68;101049.63;4914498;28;102837;-81
2023/08/16 11:11:14;;;;;;;;;;;;;;;33.56;41.95;101051.69;4916043;28;98387;-81
2023/08/16 11:13:41;;;;;;;;;;;;;;;33.65;41.70;101059.63;4935392;28;98308;-81
2023/08/16 11:16:12;;;;;;;;;;;;;;;33.87;41.05;101046.25;4920519;28;98882;-80
2023/08/16 11:18:40;;;;;;;;;;;;;;;33.73;41.63;101047.19;4901537;28;98186;-71
2023/08/16 11:21:09;;;;;;;;;;;;;;;33.81;41.64;101039.53;4920126;28;98000;-71
2023/08/16 11:23:37;;;;;;;;;;;;;;;33.76;41.57;101040.78;4905454;28;98615;-71
2023/08/16 11:26:04;;;;;;;;;;;;;;;33.58;41.46;101046.50;4904616;28;98301;-80
2023/08/16 11:28:32;;;;;;;;;;;;;;;33.40;41.56;101038.22;4906081;28;98365;-80
2023/08/16 11:30:59;;;;;;;;;;;;;;;33.39;41.48;101042.22;4927793;28;98170;-80
2023/08/16 11:33:37;;;;;;;;;;;;;;;33.48;41.90;101044.56;4911872;28;98198;-70
2023/08/16 11:36:11;;;;;;;;;;;;;;;33.81;41.06;101042.31;4912840;28;98329;-72
2023/08/16 11:38:39;;;;;;;;;;;;;;;34.78;40.29;101039.28;4903495;28;99608;-71
2023/08/16 11:41:06;;;;;;;;;;;;;;;35.57;39.36;101036.19;4930677;28;98539;-71
2023/08/16 11:43:34;;;;;;;;;;;;;;;34.76;40.49;101036.91;4915065;28;99420;-71
2023/08/16 11:46:01;;;;;;;;;;;;;;;34.33;41.36;101031.81;4928366;28;98158;-72
2023/08/16 11:48:29;;;;;;;;;;;;;;;34.28;40.89;101031.50;4928478;28;98126;-71
2023/08/16 11:50:56;;;;;;;;;;;;;;;34.77;40.66;101035.69;4912453;28;99910;-71
2023/08/16 11:53:29;;;;;;;;;;;;;;;35.03;40.28;101036.19;4916899;28;99071;-79
2023/08/16 11:55:58;;;;;;;;;;;;;;;34.30;41.13;101040.25;4925123;28;101984;-71
2023/08/16 11:58:25;;;;;;;;;;;;;;;33.94;41.44;101029.41;4928648;28;98402;-71
2023/08/16 12:00:52;;;;;;;;;;;;;;;33.94;41.50;101033.00;4915368;28;98278;-80
2023/08/16 12:03:19;;;;;;;;;;;;;;;34.37;41.00;101026.97;4928899;28;98422;-80
2023/08/16 12:05:49;;;;;;;;;;;;;;;34.03;41.13;101028.94;4916699;28;100127;-72
2023/08/16 12:08:21;;;;;;;;;;;;;;;33.99;41.73;101023.38;4917939;28;98234;-72
2023/08/16 12:10:54;;;;;;;;;;;;;;;34.62;40.61;101021.09;4903343;28;98395;-80
2023/08/16 12:13:20;;;;;;;;;;;;;;;35.33;39.85;101022.13;4913290;28;98837;-80
2023/08/16 12:15:46;;;;;;;;;;;;;;;35.19;40.54;101015.94;4922520;28;98185;-80
2023/08/16 12:18:17;;;;;;;;;;;;;;;35.70;39.63;101027.97;4923440;28;98130;-70
2023/08/16 12:20:50;;;;;;;;;;;;;;;36.72;38.59;101026.44;4931056;28;99192;-71
2023/08/16 12:23:20;;;;;;;;;;;;;;;36.73;39.29;101016.78;4929253;28;98368;-81
2023/08/16 12:25:47;;;;;;;;;;;;;;;35.79;40.48;101023.38;4946925;28;98188;-71
2023/08/16 12:28:13;;;;;;;;;;;;;;;35.93;40.08;101013.94;4902353;28;98424;-71
2023/08/16 12:30:40;;;;;;;;;;;;;;;35.54;40.59;101009.00;4936194;28;111387;-73
2023/08/16 12:33:09;;;;;;;;;;;;;;;35.77;40.17;101003.41;4917123;28;98159;-72
2023/08/16 12:35:38;;;;;;;;;;;;;;;35.48;40.69;101011.47;4951637;28;98359;-71
2023/08/16 12:38:05;;;;;;;;;;;;;;;35.77;40.33;101002.63;4903011;28;98204;-80